Time;durP1;ratioP1;P1;durP2;ratioP2;P2;SDS_P1;SDS_P2;PMS_P1;PMS_P2;Temp;Humidity;BMP_temperature;BMP_pressure;BME280_temperature;BME280_humidity;BME280_pressure;Samples;Min_cycle;Max_cycle;Signal;HPM_P1;HPM_P2
2021/04/12 00:00:26;;;;;;;0.68;0.50;;;6.80;99.90;;;;;;5064547;28;20135;-60
2021/04/12 00:03:41;;;;;;;0.52;0.52;;;6.90;99.90;;;;;;5064840;28;20592;-61
2021/04/12 00:06:11;;;;;;;0.32;0.32;;;6.90;99.90;;;;;;4998704;28;20534;-61
2021/04/12 00:08:46;;;;;;;0.40;0.40;;;6.90;99.90;;;;;;5045310;28;20037;-61
2021/04/12 00:12:03;;;;;;;0.32;0.30;;;6.70;99.90;;;;;;5046478;28;20120;-60
2021/04/12 00:14:33;;;;;;;0.77;0.40;;;6.90;99.90;;;;;;5049626;28;20377;-60
2021/04/12 00:16:59;;;;;;;0.32;0.30;;;7.00;99.90;;;;;;5046498;28;20063;-60
2021/04/12 00:19:38;;;;;;;0.32;0.32;;;7.00;99.90;;;;;;5044963;28;20114;-61
2021/04/12 00:22:03;;;;;;;0.85;0.50;;;7.10;99.90;;;;;;5045409;28;20084;-61
2021/04/12 00:24:48;;;;;;;0.50;0.50;;;7.00;99.90;;;;;;5058776;28;20060;-61
2021/04/12 00:27:16;;;;;;;0.30;0.30;;;7.10;99.90;;;;;;5066552;28;20102;-61
2021/04/12 00:29:57;;;;;;;1.55;1.20;;;7.20;99.90;;;;;;5066719;28;20499;-61
2021/04/12 00:32:26;;;;;;;2.50;1.60;;;7.30;99.90;;;;;;5065612;28;20036;-61
2021/04/12 00:35:10;;;;;;;1.63;1.17;;;7.10;99.90;;;;;;5048709;28;20032;-61
2021/04/12 00:37:45;;;;;;;1.92;1.35;;;7.20;99.90;;;;;;5045681;28;20025;-61
2021/04/12 00:40:22;;;;;;;;;;;7.30;99.90;;;;;;5046269;28;20434;-61
2021/04/12 00:43:02;;;;;;;5.65;2.15;;;7.20;99.90;;;;;;5045769;28;19905;-62
2021/04/12 00:45:40;;;;;;;6.00;2.20;;;7.10;99.90;;;;;;5045345;28;20388;-61
2021/04/12 00:48:26;;;;;;;3.53;1.33;;;7.20;99.90;;;;;;5045414;28;20122;-61
2021/04/12 00:51:03;;;;;;;1.95;1.00;;;7.20;99.90;;;;;;5045740;28;20025;-61
2021/04/12 00:54:02;;;;;;;1.13;0.93;;;7.20;99.90;;;;;;5056051;28;20017;-61
2021/04/12 00:56:36;;;;;;;1.40;0.80;;;7.20;99.90;;;;;;5045231;28;20593;-61
2021/04/12 00:59:11;;;;;;;1.20;1.00;;;7.10;99.90;;;;;;5045823;28;20028;-61
2021/04/12 01:01:40;;;;;;;1.33;1.23;;;7.20;99.90;;;;;;5045201;28;20921;-61
2021/04/12 01:04:23;;;;;;;2.85;1.48;;;7.20;99.90;;;;;;5044969;28;20048;-61
2021/04/12 01:06:57;;;;;;;1.55;1.00;;;7.10;99.90;;;;;;5045572;28;20487;-61
2021/04/12 01:10:00;;;;;;;1.33;1.20;;;7.20;99.90;;;;;;5044440;28;20031;-61
2021/04/12 01:12:35;;;;;;;0.73;0.73;;;7.30;99.90;;;;;;5045094;28;20060;-61
2021/04/12 01:15:29;;;;;;;1.02;0.88;;;7.30;99.90;;;;;;5045132;28;20468;-61
2021/04/12 01:18:01;;;;;;;1.08;0.90;;;7.30;99.90;;;;;;5044941;28;20127;-61
2021/04/12 01:20:47;;;;;;;1.10;1.00;;;7.10;99.90;;;;;;5045249;28;20510;-62
2021/04/12 01:23:50;;;;;;;0.60;0.60;;;7.30;99.90;;;;;;5045281;28;20039;-61
2021/04/12 01:26:24;;;;;;;1.00;0.90;;;7.30;99.90;;;;;;5046113;28;20113;-61
2021/04/12 01:29:05;;;;;;;0.77;0.70;;;7.20;99.90;;;;;;5045556;28;20087;-61
2021/04/12 01:31:58;;;;;;;1.48;1.10;;;7.10;99.90;;;;;;5045026;28;20032;-62
2021/04/12 01:34:54;;;;;;;1.40;1.00;;;7.10;99.90;;;;;;5045143;28;20029;-62
2021/04/12 01:37:54;;;;;;;1.77;1.38;;;7.10;99.90;;;;;;5048768;28;20507;-62
2021/04/12 01:40:47;;;;;;;1.75;1.20;;;7.00;99.90;;;;;;5048786;28;20116;-62
2021/04/12 01:43:39;;;;;;;1.58;1.33;;;7.10;99.90;;;;;;5049117;28;20029;-62
2021/04/12 01:46:29;;;;;;;2.17;1.67;;;7.10;99.90;;;;;;5049556;28;20068;-62
2021/04/12 01:48:54;;;;;;;1.83;1.50;;;7.10;99.90;;;;;;5047283;28;20430;-62
2021/04/12 01:51:35;;;;;;;1.98;1.40;;;7.20;99.90;;;;;;5048100;28;20032;-62
2021/04/12 01:54:38;;;;;;;1.77;1.50;;;7.20;99.90;;;;;;5048105;28;20025;-62
2021/04/12 01:57:31;;;;;;;1.83;1.55;;;7.20;99.90;;;;;;5048627;28;20033;-62
2021/04/12 02:00:18;;;;;;;1.45;1.30;;;7.10;99.90;;;;;;5048528;28;20052;-62
2021/04/12 02:03:17;;;;;;;1.17;1.08;;;7.20;99.90;;;;;;5048659;28;20040;-62
2021/04/12 02:05:43;;;;;;;1.38;1.27;;;7.30;99.90;;;;;;5049100;28;20056;-62
2021/04/12 02:08:18;;;;;;;1.30;1.20;;;7.30;99.90;;;;;;5047925;28;20041;-62
2021/04/12 02:11:02;;;;;;;1.27;1.17;;;7.30;99.90;;;;;;5048863;28;20040;-62
2021/04/12 02:13:50;;;;;;;2.03;1.27;;;7.30;99.90;;;;;;5047656;28;20114;-62
2021/04/12 02:16:31;;;;;;;1.42;1.30;;;7.30;99.90;;;;;;5048115;28;20129;-62
2021/04/12 02:19:34;;;;;;;1.40;1.27;;;7.30;99.90;;;;;;5047964;28;20025;-63
2021/04/12 02:22:35;;;;;;;1.20;1.10;;;7.20;99.90;;;;;;5047649;28;20060;-62
2021/04/12 02:25:18;;;;;;;1.83;1.45;;;7.10;99.90;;;;;;5047690;28;20029;-62
2021/04/12 02:27:58;;;;;;;1.75;1.60;;;7.20;99.90;;;;;;5048402;28;20033;-62
2021/04/12 02:30:29;;;;;;;1.88;1.58;;;7.20;99.90;;;;;;5047665;28;20048;-62
2021/04/12 02:33:09;;;;;;;2.80;1.80;;;7.10;99.90;;;;;;5047671;28;20491;-63
2021/04/12 02:36:01;;;;;;;4.90;2.30;;;7.00;99.90;;;;;;5047175;28;20039;-62
2021/04/12 02:39:00;;;;;;;4.30;2.60;;;6.60;99.90;;;;;;5056031;28;20513;-62
2021/04/12 02:41:41;;;;;;;3.53;2.80;;;6.50;99.90;;;;;;5047257;28;20075;-61
2021/04/12 02:44:23;;;;;;;2.58;2.15;;;6.70;99.90;;;;;;5047190;28;20070;-62
2021/04/12 02:46:58;;;;;;;1.45;1.35;;;6.90;99.90;;;;;;5047042;28;20009;-63
2021/04/12 02:49:26;;;;;;;1.67;1.20;;;7.00;99.90;;;;;;5047362;28;20121;-62
2021/04/12 02:51:52;;;;;;;1.58;1.48;;;7.10;99.90;;;;;;5047534;28;20032;-63
2021/04/12 02:54:28;;;;;;;0.70;0.70;;;7.20;99.90;;;;;;5046895;28;20024;-63
2021/04/12 02:57:14;;;;;;;0.75;0.75;;;7.20;99.90;;;;;;5046829;28;20033;-63
2021/04/12 03:00:15;;;;;;;0.82;0.80;;;7.00;99.90;;;;;;5047309;28;20027;-62
2021/04/12 03:02:58;;;;;;;0.70;0.70;;;7.10;99.90;;;;;;5046876;28;20075;-63
2021/04/12 03:05:59;;;;;;;0.60;0.55;;;7.00;99.90;;;;;;5046470;28;20666;-63
2021/04/12 03:08:39;;;;;;;0.50;0.50;;;7.00;99.90;;;;;;5046439;28;20040;-63
2021/04/12 03:11:14;;;;;;;0.65;0.65;;;6.80;99.90;;;;;;5047035;28;20032;-63
2021/04/12 03:14:01;;;;;;;0.88;0.88;;;6.80;99.90;;;;;;5046615;28;20043;-63
2021/04/12 03:16:45;;;;;;;1.00;0.93;;;6.80;99.90;;;;;;5055602;28;20044;-63
2021/04/12 03:19:48;;;;;;;1.95;1.27;;;7.00;99.90;;;;;;5066904;28;20043;-63
2021/04/12 03:22:30;;;;;;;1.20;1.10;;;6.90;99.90;;;;;;5067424;28;20031;-64
2021/04/12 03:25:27;;;;;;;1.30;1.02;;;6.80;99.90;;;;;;5053080;28;20061;-63
2021/04/12 03:28:01;;;;;;;1.20;1.10;;;7.00;99.90;;;;;;5046705;28;20078;-63
2021/04/12 03:30:52;;;;;;;1.60;1.13;;;7.10;99.90;;;;;;5046636;28;20467;-63
2021/04/12 03:33:34;;;;;;;1.10;1.00;;;7.20;99.90;;;;;;5045232;28;20028;-64
2021/04/12 03:36:24;;;;;;;0.70;0.70;;;7.30;99.90;;;;;;5046219;28;20025;-63
2021/04/12 03:38:59;;;;;;;0.77;0.70;;;7.10;99.90;;;;;;5046031;28;20122;-64
2021/04/12 03:41:36;;;;;;;0.50;0.50;;;7.10;99.90;;;;;;5045621;28;20036;-64
2021/04/12 03:44:15;;;;;;;0.63;0.63;;;7.10;99.90;;;;;;5047883;28;20021;-64
2021/04/12 03:46:53;;;;;;;0.50;0.50;;;7.10;99.90;;;;;;5055314;28;20032;-63
2021/04/12 03:49:47;;;;;;;0.50;0.50;;;6.90;99.90;;;;;;5064417;28;20021;-63
2021/04/12 03:52:22;;;;;;;0.70;0.60;;;7.00;99.90;;;;;;5065717;28;20109;-63
2021/04/12 03:55:26;;;;;;;0.60;0.60;;;6.80;99.90;;;;;;5081158;28;20065;-64
2021/04/12 03:58:04;;;;;;;0.73;0.68;;;6.90;99.90;;;;;;5083229;28;20532;-63
2021/04/12 04:01:07;;;;;;;0.60;0.60;;;6.80;99.90;;;;;;5067512;28;20041;-62
2021/04/12 04:03:47;;;;;;;0.93;0.80;;;6.70;99.90;;;;;;5045518;28;20029;-63
2021/04/12 04:06:16;;;;;;;0.75;0.63;;;6.60;99.90;;;;;;5043083;28;20054;-63
2021/04/12 04:09:09;;;;;;;1.50;0.70;;;6.50;99.90;;;;;;5044987;28;20033;-63
2021/04/12 04:11:53;;;;;;;1.27;1.17;;;6.40;99.90;;;;;;5045604;28;20438;-63
2021/04/12 04:15:01;;;;;;;1.45;1.25;;;6.00;99.90;;;;;;5060471;28;20395;-63
2021/04/12 04:17:40;;;;;;;2.47;1.48;;;6.10;99.90;;;;;;5059371;28;20056;-63
2021/04/12 04:20:36;;;;;;;1.58;1.48;;;6.00;99.90;;;;;;5046165;28;20155;-64
2021/04/12 04:23:20;;;;;;;2.03;1.70;;;6.00;99.90;;;;;;5055919;28;20033;-63
2021/04/12 04:26:04;;;;;;;1.90;1.67;;;6.00;99.90;;;;;;5066871;28;20498;-63
2021/04/12 04:28:48;;;;;;;2.05;1.67;;;6.20;99.90;;;;;;5065714;28;20120;-63
2021/04/12 04:31:33;;;;;;;4.93;1.60;;;6.10;99.90;;;;;;5065081;28;20040;-63
2021/04/12 04:34:16;;;;;;;;;;;6.00;99.90;;;;;;5055752;28;20029;-63
2021/04/12 04:37:03;;;;;;;4.13;2.05;;;5.90;99.90;;;;;;5066615;28;19930;-62
2021/04/12 04:39:57;;;;;;;2.50;2.20;;;5.80;99.90;;;;;;5065570;28;20108;-63
2021/04/12 04:42:54;;;;;;;3.50;2.45;;;5.70;99.90;;;;;;5063267;28;20028;-62
2021/04/12 04:45:30;;;;;;;2.65;2.13;;;5.80;99.90;;;;;;5063724;28;20804;-63
2021/04/12 04:48:33;;;;;;;2.38;2.17;;;5.90;99.90;;;;;;5059287;28;20485;-61
2021/04/12 04:51:32;;;;;;;3.17;2.20;;;6.00;99.90;;;;;;5045853;28;20044;-62
2021/04/12 04:54:07;;;;;;;2.58;1.98;;;6.00;99.90;;;;;;5051221;28;20155;-62
2021/04/12 04:56:45;;;;;;;2.50;2.08;;;6.00;99.90;;;;;;5046355;28;20588;-62
2021/04/12 04:59:35;;;;;;;3.22;2.20;;;5.90;99.90;;;;;;5065888;28;20174;-62
2021/04/12 05:02:13;;;;;;;2.67;2.35;;;5.60;99.90;;;;;;5065734;28;20060;-62
2021/04/12 05:04:44;;;;;;;2.83;2.08;;;5.50;99.90;;;;;;5045255;28;20021;-62
2021/04/12 05:07:47;;;;;;;2.25;1.98;;;5.70;99.90;;;;;;5045271;28;20067;-62
2021/04/12 05:10:17;;;;;;;2.40;2.00;;;5.70;99.90;;;;;;5049499;28;20467;-62
2021/04/12 05:13:10;;;;;;;3.00;2.22;;;5.70;99.90;;;;;;5048551;28;20032;-62
2021/04/12 05:16:07;;;;;;;5.82;3.15;;;5.80;99.90;;;;;;5048806;28;20033;-62
2021/04/12 05:18:55;;;;;;;3.45;2.50;;;5.50;99.90;;;;;;5049486;28;20033;-62
2021/04/12 05:21:45;;;;;;;4.68;2.95;;;5.60;99.90;;;;;;5048944;28;20033;-62
2021/04/12 05:24:35;;;;;;;7.50;4.63;;;5.50;99.90;;;;;;5048789;28;20029;-62
2021/04/12 05:27:26;;;;;;;11.50;6.30;;;5.40;99.90;;;;;;5049709;28;20025;-62
2021/04/12 05:30:16;;;;;;;10.68;6.85;;;5.60;99.90;;;;;;5049280;28;20044;-62
2021/04/12 05:33:04;;;;;;;6.95;4.70;;;5.50;99.90;;;;;;5048282;28;20063;-63
2021/04/12 05:35:51;;;;;;;6.78;4.75;;;5.40;99.90;;;;;;5049112;28;20040;-62
2021/04/12 05:38:41;;;;;;;5.38;4.20;;;5.50;99.90;;;;;;5048719;28;20036;-61
2021/04/12 05:41:21;;;;;;;5.35;4.20;;;5.50;99.90;;;;;;5047559;28;20060;-62
2021/04/12 05:44:05;;;;;;;5.38;3.75;;;5.40;99.90;;;;;;5050213;28;20028;-62
2021/04/12 05:46:42;;;;;;;5.47;3.90;;;5.60;99.90;;;;;;5049211;28;20483;-61
2021/04/12 05:49:29;;;;;;;6.47;5.07;;;5.60;99.90;;;;;;5049219;28;20041;-62
2021/04/12 05:52:21;;;;;;;6.07;4.68;;;5.60;99.90;;;;;;5048662;28;20094;-62
2021/04/12 05:55:01;;;;;;;5.40;4.13;;;5.70;99.90;;;;;;5046782;28;20033;-62
2021/04/12 05:57:55;;;;;;;5.93;4.85;;;5.70;99.90;;;;;;5052021;28;20025;-62
2021/04/12 06:00:25;;;;;;;7.60;4.63;;;5.80;99.90;;;;;;5066436;28;20419;-62
2021/04/12 06:03:29;;;;;;;6.97;4.10;;;5.90;99.90;;;;;;5053077;28;20117;-61
2021/04/12 06:06:13;;;;;;;8.32;4.65;;;5.90;99.90;;;;;;5068396;28;20029;-62
2021/04/12 06:08:48;;;;;;;;;;;5.90;99.90;;;;;;5063263;28;20033;-61
2021/04/12 06:12:03;;;;;;;10.15;7.50;;;5.60;99.90;;;;;;5048030;28;20320;-62
2021/04/12 06:14:40;;;;;;;8.45;5.82;;;5.60;99.90;;;;;;5013286;28;20046;-62
2021/04/12 06:17:33;;;;;;;7.93;5.50;;;5.80;99.90;;;;;;5048182;28;20028;-62
2021/04/12 06:20:29;;;;;;;9.68;6.00;;;5.70;99.90;;;;;;5047975;28;20028;-62
2021/04/12 06:23:36;;;;;;;10.27;5.47;;;5.60;99.90;;;;;;5047577;28;20898;-62
2021/04/12 06:26:36;;;;;;;7.00;5.38;;;5.70;99.90;;;;;;5048706;28;20384;-62
2021/04/12 06:29:29;;;;;;;5.30;4.60;;;5.90;99.90;;;;;;5055542;28;20049;-62
2021/04/12 06:32:39;;;;;;;5.53;4.50;;;6.00;99.90;;;;;;5047974;28;20041;-61
2021/04/12 06:35:43;;;;;;;6.95;4.60;;;6.20;99.90;;;;;;5056168;28;20032;-61
2021/04/12 06:38:26;;;;;;;8.15;5.28;;;6.20;99.90;;;;;;5067062;28;20051;-61
2021/04/12 06:41:20;;;;;;;7.60;5.15;;;6.20;99.90;;;;;;5057779;28;20036;-62
2021/04/12 06:44:10;;;;;;;6.38;4.30;;;6.30;99.90;;;;;;5051666;28;20033;-62
2021/04/12 06:47:06;;;;;;;8.68;4.75;;;6.40;99.90;;;;;;5047372;28;20033;-61
2021/04/12 06:49:47;;;;;;;6.75;4.75;;;6.40;99.90;;;;;;5047989;28;20067;-62
2021/04/12 06:52:24;;;;;;;6.50;4.43;;;6.40;99.90;;;;;;5058825;28;20039;-62
2021/04/12 06:58:11;;;;;;;8.43;5.18;;;6.30;99.90;;;;;;5060041;28;20061;-61
2021/04/12 07:01:04;;;;;;;5.50;4.75;;;6.40;99.90;;;;;;5048633;28;20511;-61
2021/04/12 07:04:11;;;;;;;6.43;4.80;;;6.40;99.90;;;;;;5045844;28;20021;-61
2021/04/12 07:06:43;;;;;;;6.72;4.88;;;6.20;99.90;;;;;;5050163;28;20743;-61
2021/04/12 07:09:46;;;;;;;5.80;4.63;;;6.50;99.90;;;;;;5045149;28;20033;-61
2021/04/12 07:12:24;;;;;;;5.07;4.10;;;6.50;99.90;;;;;;5048283;28;20029;-61
2021/04/12 07:15:12;;;;;;;4.95;3.85;;;6.50;99.90;;;;;;5044782;28;20051;-61
2021/04/12 07:17:53;;;;;;;6.88;4.25;;;6.50;99.90;;;;;;5045083;28;20031;-62
2021/04/12 07:20:37;;;;;;;6.30;4.22;;;6.70;99.90;;;;;;5045182;28;20421;-62
2021/04/12 07:23:47;;;;;;;4.80;3.85;;;6.70;99.90;;;;;;5045353;28;20033;-62
2021/04/12 07:26:41;;;;;;;7.43;3.97;;;6.80;99.90;;;;;;5045133;28;20423;-61
2021/04/12 07:29:34;;;;;;;4.70;3.90;;;7.00;99.90;;;;;;5051031;28;20028;-63
2021/04/12 07:32:19;;;;;;;6.03;4.50;;;7.10;99.90;;;;;;5045224;28;20028;-61
2021/04/12 07:35:17;;;;;;;4.70;4.13;;;7.10;99.90;;;;;;5045641;28;20033;-62
2021/04/12 07:38:24;;;;;;;6.90;4.70;;;6.90;99.90;;;;;;5045359;28;20032;-60
2021/04/12 07:41:14;;;;;;;8.10;3.97;;;6.70;99.90;;;;;;5052443;28;20048;-61
2021/04/12 07:44:01;;;;;;;5.35;3.70;;;7.00;99.90;;;;;;5051944;28;20064;-61
2021/04/12 07:46:54;;;;;;;6.15;4.28;;;6.90;99.90;;;;;;5045005;28;20083;-61
2021/04/12 07:49:41;;;;;;;5.30;4.30;;;6.80;99.90;;;;;;5044659;28;20024;-61
2021/04/12 07:52:42;;;;;;;7.25;3.92;;;6.90;99.90;;;;;;5048680;28;20582;-60
2021/04/12 07:55:33;;;;;;;6.13;4.07;;;6.90;99.90;;;;;;5050798;28;20538;-61
2021/04/12 07:58:35;;;;;;;4.53;3.92;;;6.90;99.90;;;;;;5064610;28;20477;-61
2021/04/12 08:01:28;;;;;;;5.28;3.67;;;7.00;99.90;;;;;;5064800;28;20050;-61
2021/04/12 08:04:17;;;;;;;7.15;3.83;;;7.00;99.90;;;;;;5064732;28;20035;-61
2021/04/12 08:07:01;;;;;;;6.35;3.92;;;6.80;99.90;;;;;;5050617;28;20586;-62
2021/04/12 08:09:42;;;;;;;4.57;3.55;;;6.90;99.90;;;;;;5045851;28;20487;-60
2021/04/12 08:13:02;;;;;;;5.80;4.07;;;7.10;99.90;;;;;;5044389;28;20045;-61
2021/04/12 08:16:15;;;;;;;5.47;3.72;;;7.40;99.90;;;;;;5043945;28;20557;-61
2021/04/12 08:19:15;;;;;;;9.95;4.80;;;7.60;99.90;;;;;;5042067;28;20041;-63
2021/04/12 08:22:02;;;;;;;10.05;4.95;;;7.70;99.90;;;;;;5044200;28;20056;-61
2021/04/12 08:24:46;;;;;;;8.60;5.25;;;8.00;99.90;;;;;;5052651;28;20025;-61
2021/04/12 08:27:46;;;;;;;7.63;4.70;;;7.70;99.90;;;;;;5065039;28;20031;-61
2021/04/12 08:31:06;;;;;;;6.90;5.50;;;7.30;99.90;;;;;;5058890;28;20033;-61
2021/04/12 08:34:09;;;;;;;7.65;5.18;;;6.80;99.90;;;;;;5049032;28;20048;-61
2021/04/12 08:36:49;;;;;;;7.25;4.03;;;6.80;99.90;;;;;;5048675;28;20750;-61
2021/04/12 08:39:38;;;;;;;4.95;3.60;;;6.90;99.90;;;;;;5057228;28;20035;-62
2021/04/12 08:42:22;;;;;;;12.10;4.00;;;7.10;99.90;;;;;;5045653;28;20060;-61
2021/04/12 08:45:24;;;;;;;5.07;3.17;;;7.10;99.90;;;;;;5067377;28;20032;-62
2021/04/12 08:48:20;;;;;;;6.18;3.33;;;7.20;99.90;;;;;;5060183;28;20024;-62
2021/04/12 08:51:23;;;;;;;4.38;2.90;;;7.10;99.90;;;;;;5048889;28;20059;-62
2021/04/12 08:54:08;;;;;;;4.45;3.08;;;7.20;99.90;;;;;;5048566;28;20017;-62
2021/04/12 08:57:11;;;;;;;4.45;3.05;;;7.00;99.90;;;;;;5064359;28;20060;-61
2021/04/12 09:00:10;;;;;;;4.50;3.60;;;7.10;99.90;;;;;;5069401;28;20029;-61
2021/04/12 09:02:56;;;;;;;6.50;4.30;;;7.00;99.90;;;;;;5058525;28;20037;-62
2021/04/12 09:05:41;;;;;;;5.03;3.80;;;7.00;99.90;;;;;;5060018;28;20502;-62
2021/04/12 09:08:39;;;;;;;3.70;3.30;;;7.30;99.90;;;;;;5066114;28;20036;-61
2021/04/12 09:11:23;;;;;;;7.00;4.00;;;7.50;99.90;;;;;;5067640;28;20108;-62
2021/04/12 09:14:16;;;;;;;5.03;3.50;;;7.50;99.90;;;;;;5067574;28;20402;-62
2021/04/12 09:16:48;;;;;;;5.15;3.53;;;7.60;99.90;;;;;;5067744;28;20035;-62
2021/04/12 09:19:33;;;;;;;3.40;3.10;;;7.60;99.90;;;;;;5067876;28;20094;-62
2021/04/12 09:22:17;;;;;;;5.20;3.00;;;7.70;99.90;;;;;;5068037;28;20055;-61
2021/04/12 09:25:01;;;;;;;5.70;2.75;;;7.70;99.90;;;;;;5066550;28;20504;-61
2021/04/12 09:27:57;;;;;;;4.55;2.83;;;7.80;99.90;;;;;;5067759;28;20126;-62
2021/04/12 09:30:40;;;;;;;3.40;2.50;;;7.60;99.90;;;;;;5067227;28;20483;-61
2021/04/12 09:33:33;;;;;;;3.55;2.80;;;7.60;99.90;;;;;;5067376;28;20038;-61
2021/04/12 09:36:17;;;;;;;5.00;2.90;;;7.70;99.90;;;;;;5068253;28;20031;-62
2021/04/12 09:39:21;;;;;;;5.57;3.08;;;7.60;99.90;;;;;;5067377;28;20102;-61
2021/04/12 09:42:05;;;;;;;5.50;3.33;;;7.70;99.90;;;;;;5065325;28;20087;-61
2021/04/12 09:44:49;;;;;;;4.28;2.88;;;7.70;99.90;;;;;;5067123;28;20111;-61
2021/04/12 09:47:29;;;;;;;4.72;2.80;;;7.80;99.90;;;;;;5067099;28;20035;-62
2021/04/12 09:50:13;;;;;;;3.40;2.40;;;7.70;99.90;;;;;;5067821;28;20123;-62
2021/04/12 09:52:54;;;;;;;3.83;2.42;;;7.60;99.90;;;;;;5051115;28;20442;-61
2021/04/12 09:55:26;;;;;;;3.25;2.67;;;7.70;99.90;;;;;;5051627;28;20100;-61
2021/04/12 09:57:55;;;;;;;4.70;2.72;;;7.70;99.90;;;;;;5068225;28;20024;-62
2021/04/12 10:01:14;;;;;;;3.42;3.08;;;7.80;99.90;;;;;;5068275;28;20131;-62
2021/04/12 10:04:14;;;;;;;4.38;3.13;;;7.60;99.90;;;;;;5064665;28;20697;-62
2021/04/12 10:07:05;;;;;;;7.07;2.80;;;7.80;99.90;;;;;;5065831;28;20078;-62
2021/04/12 10:09:49;;;;;;;3.65;2.35;;;7.90;99.90;;;;;;5066450;28;20035;-62
2021/04/12 10:12:30;;;;;;;2.83;2.53;;;8.00;99.90;;;;;;5064332;28;20040;-62
2021/04/12 10:15:28;;;;;;;3.10;2.25;;;8.10;99.90;;;;;;5060156;28;20139;-63
2021/04/12 10:18:25;;;;;;;3.30;2.83;;;8.20;99.90;;;;;;5067507;28;20017;-62
2021/04/12 10:21:14;;;;;;;4.72;2.67;;;8.40;99.90;;;;;;5067546;28;20035;-63
2021/04/12 10:23:42;;;;;;;3.67;2.03;;;8.40;99.90;;;;;;5047961;28;20148;-63
2021/04/12 10:26:14;;;;;;;3.35;2.30;;;8.50;99.90;;;;;;5048126;28;20029;-62
2021/04/12 10:28:47;;;;;;;2.88;2.33;;;8.50;99.90;;;;;;5053907;28;20025;-61
2021/04/12 10:31:34;;;;;;;2.00;1.80;;;8.30;99.90;;;;;;5061020;28;20033;-62
2021/04/12 10:34:19;;;;;;;2.30;1.65;;;8.30;99.90;;;;;;5048158;28;20648;-62
2021/04/12 10:37:13;;;;;;;2.63;1.92;;;8.60;99.90;;;;;;5057492;28;20036;-62
2021/04/12 10:39:58;;;;;;;2.67;1.85;;;8.60;99.90;;;;;;5047555;28;20048;-63
2021/04/12 10:42:38;;;;;;;3.40;2.15;;;8.80;99.90;;;;;;5064889;28;20044;-61
2021/04/12 10:45:09;;;;;;;2.83;2.03;;;9.10;99.90;;;;;;5066877;28;20028;-63
2021/04/12 10:47:56;;;;;;;4.07;2.58;;;9.00;99.90;;;;;;5055985;28;20033;-62
2021/04/12 10:50:33;;;;;;;6.20;3.42;;;8.70;99.90;;;;;;5047415;28;20021;-62
2021/04/12 10:52:59;;;;;;;4.28;2.40;;;8.30;99.90;;;;;;5050230;28;20025;-62
2021/04/12 10:55:47;;;;;;;2.83;2.17;;;8.50;99.90;;;;;;5048101;28;20031;-62
2021/04/12 10:58:28;;;;;;;2.58;2.03;;;8.60;99.90;;;;;;5047570;28;20033;-62
2021/04/12 11:01:00;;;;;;;3.63;2.05;;;8.40;99.90;;;;;;5045651;28;20041;-61
2021/04/12 11:03:41;;;;;;;2.80;1.90;;;8.60;99.90;;;;;;5045939;28;20055;-63
2021/04/12 11:06:29;;;;;;;2.75;1.70;;;8.80;99.90;;;;;;5045085;28;20086;-62
2021/04/12 11:09:09;;;;;;;1.52;1.42;;;8.90;99.90;;;;;;5045640;28;20029;-62
2021/04/12 11:11:50;;;;;;;2.95;1.52;;;9.20;99.90;;;;;;5045017;28;20162;-62
2021/04/12 11:14:27;;;;;;;2.55;2.10;;;9.20;99.90;;;;;;5045282;28;20103;-62
2021/04/12 11:17:02;;;;;;;1.98;1.73;;;9.00;99.90;;;;;;5045527;28;20107;-62
2021/04/12 11:20:00;;;;;;;1.30;1.20;;;9.20;99.90;;;;;;5045702;28;20096;-63
2021/04/12 11:22:58;;;;;;;2.03;1.20;;;9.50;99.90;;;;;;5047538;28;20040;-62
2021/04/12 11:25:44;;;;;;;3.42;1.27;;;9.50;99.90;;;;;;5044989;28;20565;-62
2021/04/12 11:28:21;;;;;;;2.05;1.85;;;9.60;99.90;;;;;;5045234;28;20028;-61
2021/04/12 11:31:04;;;;;;;1.95;1.25;;;9.60;99.90;;;;;;5045254;28;20264;-62
2021/04/12 11:33:44;;;;;;;2.30;1.42;;;9.50;99.90;;;;;;5045477;28;20023;-63
2021/04/12 11:36:13;;;;;;;2.85;2.00;;;9.40;99.90;;;;;;5045220;28;20237;-62
2021/04/12 11:39:06;;;;;;;1.63;1.50;;;9.30;99.90;;;;;;5044715;28;20021;-62
2021/04/12 11:41:54;;;;;;;2.33;1.58;;;9.60;99.90;;;;;;5044143;28;20075;-62
2021/04/12 11:44:36;;;;;;;2.90;1.90;;;9.60;99.90;;;;;;5044659;28;20405;-62
2021/04/12 11:47:26;;;;;;;2.38;1.42;;;9.20;99.90;;;;;;5045087;28;20110;-62
2021/04/12 11:50:11;;;;;;;2.40;1.50;;;9.20;99.90;;;;;;5044837;28;20045;-62
2021/04/12 11:52:54;;;;;;;2.92;1.20;;;9.20;99.90;;;;;;5044209;28;20048;-63
2021/04/12 11:55:49;;;;;;;1.25;1.15;;;9.30;99.90;;;;;;5044603;28;20933;-62
2021/04/12 11:58:29;;;;;;;2.40;1.50;;;9.90;99.90;;;;;;5045736;28;20044;-62
2021/04/12 12:01:18;;;;;;;4.20;1.92;;;9.80;99.90;;;;;;5044423;28;20523;-62
2021/04/12 12:04:05;;;;;;;1.95;1.50;;;9.70;99.90;;;;;;5044919;28;20116;-62
2021/04/12 12:06:51;;;;;;;2.60;1.30;;;10.30;99.90;;;;;;5044384;28;20057;-63
2021/04/12 12:09:37;;;;;;;1.23;1.10;;;10.30;99.90;;;;;;5044234;28;20529;-64
2021/04/12 12:12:40;;;;;;;2.03;1.27;;;10.70;99.90;;;;;;5044185;28;20028;-63
2021/04/12 12:15:26;;;;;;;1.05;1.00;;;10.80;99.90;;;;;;5044626;28;20029;-62
2021/04/12 12:18:03;;;;;;;5.18;1.80;;;10.90;99.90;;;;;;5043919;28;20055;-62
2021/04/12 12:20:52;;;;;;;3.25;2.15;;;10.70;99.90;;;;;;5044972;28;20487;-62
2021/04/12 12:23:38;;;;;;;2.67;1.52;;;10.70;99.90;;;;;;5044145;28;20598;-62
2021/04/12 12:26:09;;;;;;;2.97;1.80;;;10.60;99.90;;;;;;5044295;28;20529;-62
2021/04/12 12:28:50;;;;;;;2.95;1.58;;;10.90;99.90;;;;;;5044049;28;20021;-62
2021/04/12 12:31:35;;;;;;;4.30;2.15;;;10.60;99.90;;;;;;5043989;28;20598;-62
2021/04/12 12:34:28;;;;;;;3.92;1.10;;;10.30;99.90;;;;;;5044428;28;20060;-62
2021/04/12 12:36:56;;;;;;;2.88;1.40;;;11.00;99.90;;;;;;5044226;28;20052;-62
2021/04/12 12:39:25;;;;;;;2.08;1.00;;;11.00;99.90;;;;;;5044110;28;20060;-62
2021/04/12 12:41:51;;;;;;;1.98;0.98;;;11.00;99.90;;;;;;5043976;28;20037;-61
2021/04/12 12:44:23;;;;;;;1.77;1.10;;;10.80;99.90;;;;;;5044011;28;20200;-62
2021/04/12 12:46:52;;;;;;;1.42;1.10;;;11.00;99.90;;;;;;5044283;28;20017;-62
2021/04/12 12:49:27;;;;;;;1.10;0.90;;;11.20;99.90;;;;;;5044176;28;20021;-62
2021/04/12 12:52:08;;;;;;;1.70;0.95;;;11.50;99.90;;;;;;5044244;28;20403;-62
2021/04/12 12:54:44;;;;;;;1.80;0.88;;;11.80;99.90;;;;;;5043878;28;20040;-62
2021/04/12 12:57:33;;;;;;;3.03;1.40;;;11.70;99.90;;;;;;5044025;28;20028;-61
2021/04/12 13:00:32;;;;;;;1.95;1.10;;;11.30;99.80;;;;;;5044840;28;20353;-62
2021/04/12 13:02:59;;;;;;;1.92;1.00;;;11.60;99.90;;;;;;5044664;28;20021;-62
2021/04/12 13:05:32;;;;;;;2.42;1.02;;;11.90;99.70;;;;;;5044341;28;20021;-62
2021/04/12 13:08:11;;;;;;;2.45;1.20;;;11.90;99.40;;;;;;5044125;28;20037;-62
2021/04/12 13:10:41;;;;;;;6.35;2.13;;;11.90;99.80;;;;;;5043441;28;20032;-62
2021/04/12 13:13:22;;;;;;;2.63;1.50;;;11.20;99.90;;;;;;5043802;28;20021;-62
2021/04/12 13:15:50;;;;;;;2.30;1.80;;;11.10;99.90;;;;;;5044461;28;20028;-62
2021/04/12 13:18:21;;;;;;;2.65;1.48;;;11.50;99.90;;;;;;5043625;28;20028;-62
2021/04/12 13:20:49;;;;;;;2.78;1.30;;;11.50;98.70;;;;;;5043692;28;20029;-62
2021/04/12 13:23:22;;;;;;;2.33;1.48;;;11.70;98.70;;;;;;5043548;28;20478;-62
2021/04/12 13:25:56;;;;;;;2.47;1.30;;;12.00;98.50;;;;;;5044152;28;20067;-62
2021/04/12 13:28:38;;;;;;;1.30;0.80;;;12.30;98.60;;;;;;5043552;28;20456;-62
2021/04/12 13:31:10;;;;;;;1.35;1.02;;;12.50;97.90;;;;;;5047460;28;20044;-61
2021/04/12 13:33:54;;;;;;;1.73;1.05;;;12.00;97.60;;;;;;5047422;28;20101;-62
2021/04/12 13:36:33;;;;;;;2.60;1.25;;;11.90;97.00;;;;;;5047203;28;20968;-62
2021/04/12 13:39:12;;;;;;;2.92;1.08;;;12.00;97.20;;;;;;5048222;28;20492;-63
2021/04/12 13:41:47;;;;;;;3.00;1.20;;;12.20;97.60;;;;;;5046766;28;20180;-62
2021/04/12 13:44:16;;;;;;;3.17;1.08;;;12.10;96.80;;;;;;5047348;28;20399;-63
2021/04/12 13:47:13;;;;;;;1.42;0.88;;;12.30;97.50;;;;;;5047406;28;20550;-62
2021/04/12 13:49:43;;;;;;;0.98;0.80;;;12.70;96.90;;;;;;5046056;28;20038;-62
2021/04/12 13:52:27;;;;;;;1.52;0.98;;;12.80;96.10;;;;;;5059861;28;20078;-63
2021/04/12 13:55:06;;;;;;;3.15;1.10;;;12.80;96.40;;;;;;5062252;28;20371;-63
2021/04/12 13:57:39;;;;;;;1.90;1.23;;;12.50;94.60;;;;;;5066254;28;20035;-64
2021/04/12 14:00:20;;;;;;;3.75;1.20;;;12.00;94.50;;;;;;5048779;28;20021;-64
2021/04/12 14:03:14;;;;;;;2.13;0.88;;;12.10;94.70;;;;;;5051646;28;20082;-62
2021/04/12 14:05:51;;;;;;;2.47;1.10;;;12.50;94.70;;;;;;5059699;28;20078;-63
2021/04/12 14:08:26;;;;;;;1.02;0.93;;;12.50;93.60;;;;;;5053753;28;20067;-63
2021/04/12 14:11:04;;;;;;;1.55;1.17;;;12.30;95.20;;;;;;5048403;28;20032;-65
2021/04/12 14:13:39;;;;;;;1.15;0.90;;;12.00;94.30;;;;;;5048680;28;20052;-63
2021/04/12 14:16:07;;;;;;;0.75;0.63;;;11.50;94.90;;;;;;5048414;28;20021;-62
2021/04/12 14:18:45;;;;;;;2.28;0.98;;;11.60;95.40;;;;;;5047878;28;20046;-62
2021/04/12 14:21:17;;;;;;;3.67;0.77;;;11.80;95.70;;;;;;5049896;28;20025;-62
2021/04/12 14:24:09;;;;;;;3.70;1.05;;;12.10;94.20;;;;;;5056857;28;20067;-62
2021/04/12 14:26:47;;;;;;;2.20;0.90;;;12.50;93.90;;;;;;5071769;28;20082;-62
2021/04/12 14:29:22;;;;;;;0.82;0.65;;;12.70;93.50;;;;;;5068370;28;20036;-62
2021/04/12 14:31:50;;;;;;;1.08;0.80;;;12.60;93.70;;;;;;5066414;28;20504;-62